createdAt,value
2018-11-27T00:01:12.478Z,16.47
2018-11-27T00:03:47.214Z,16.33
2018-11-27T00:06:16.800Z,15.63
2018-11-27T00:08:46.654Z,16.00
2018-11-27T00:11:16.160Z,16.33
2018-11-27T00:13:44.635Z,16.47
2018-11-27T00:16:13.634Z,15.83
2018-11-27T00:18:42.795Z,14.53
2018-11-27T00:21:12.172Z,15.90
2018-11-27T00:23:41.713Z,16.03
2018-11-27T00:26:10.727Z,15.40
2018-11-27T00:28:40.339Z,16.23
2018-11-27T00:31:08.764Z,16.67
2018-11-27T00:33:38.339Z,15.17
2018-11-27T00:36:08.712Z,16.60
2018-11-27T00:38:37.767Z,16.43
2018-11-27T00:41:07.341Z,15.73
2018-11-27T00:43:36.505Z,15.93
2018-11-27T00:46:05.034Z,16.63
2018-11-27T00:48:34.643Z,16.20
2018-11-27T00:51:05.750Z,15.70
2018-11-27T00:53:35.536Z,16.53
2018-11-27T00:56:05.061Z,16.57
2018-11-27T00:58:34.776Z,16.33
2018-11-27T01:01:05.425Z,16.77
2018-11-27T01:03:34.513Z,15.83
2018-11-27T01:06:04.005Z,16.37
2018-11-27T01:08:32.875Z,16.37
2018-11-27T01:11:01.317Z,16.37
2018-11-27T01:13:29.984Z,17.47
2018-11-27T01:15:58.913Z,17.33
2018-11-27T01:18:27.364Z,17.07
2018-11-27T01:20:56.433Z,16.70
2018-11-27T01:23:25.134Z,16.57
2018-11-27T01:25:54.177Z,16.70
2018-11-27T01:28:23.128Z,15.73
2018-11-27T01:30:52.432Z,17.50
2018-11-27T01:33:29.796Z,15.83
2018-11-27T01:35:58.601Z,16.33
2018-11-27T01:38:27.348Z,17.33
2018-11-27T01:40:55.992Z,16.17
2018-11-27T01:43:24.743Z,16.77
2018-11-27T01:45:53.909Z,15.23
2018-11-27T01:48:22.702Z,17.47
2018-11-27T01:50:51.429Z,17.00
2018-11-27T01:53:19.887Z,16.30
2018-11-27T01:55:48.331Z,16.63
2018-11-27T01:58:17.167Z,16.30
2018-11-27T02:00:46.057Z,17.27
2018-11-27T02:03:14.434Z,16.30
2018-11-27T02:05:42.905Z,17.27
2018-11-27T02:08:11.828Z,15.57
2018-11-27T02:10:40.661Z,17.50
2018-11-27T02:13:09.347Z,15.97
2018-11-27T02:15:37.798Z,16.53
2018-11-27T02:18:07.963Z,17.30
2018-11-27T02:20:37.281Z,15.87
2018-11-27T02:23:06.659Z,16.47
2018-11-27T02:25:35.511Z,16.63
2018-11-27T02:28:04.165Z,17.07
2018-11-27T02:30:32.926Z,17.67
2018-11-27T02:33:01.630Z,16.43
2018-11-27T02:35:30.379Z,17.13
2018-11-27T02:37:59.549Z,17.97
2018-11-27T02:40:28.102Z,15.90
2018-11-27T02:42:57.607Z,15.87
2018-11-27T02:45:26.634Z,17.77
2018-11-27T02:47:56.071Z,15.83
2018-11-27T02:50:25.545Z,17.40
2018-11-27T02:52:54.756Z,16.53
2018-11-27T02:55:24.584Z,15.43
2018-11-27T02:57:53.391Z,15.93
2018-11-27T03:00:25.926Z,17.83
2018-11-27T03:02:55.514Z,18.20
2018-11-27T03:05:31.392Z,15.97
2018-11-27T03:08:00.299Z,17.13
2018-11-27T03:10:28.725Z,17.73
2018-11-27T03:12:57.518Z,16.87
2018-11-27T03:15:26.514Z,17.37
2018-11-27T03:17:55.605Z,17.07
2018-11-27T03:20:25.578Z,19.17
2018-11-27T03:22:54.187Z,17.40
2018-11-27T03:25:23.818Z,18.13
2018-11-27T03:27:53.781Z,18.23
2018-11-27T03:30:23.804Z,19.83
2018-11-27T03:32:52.765Z,18.97
2018-11-27T03:35:22.720Z,19.63
2018-11-27T03:37:51.699Z,19.93
2018-11-27T03:40:22.617Z,20.27
2018-11-27T03:42:51.109Z,19.17
2018-11-27T03:45:20.547Z,20.17
2018-11-27T03:48:20.402Z,19.40
2018-11-27T03:50:49.245Z,20.37
2018-11-27T03:53:18.597Z,19.50
2018-11-27T03:55:49.099Z,19.27
2018-11-27T03:58:17.822Z,22.20
2018-11-27T04:00:47.134Z,21.63
2018-11-27T04:03:15.913Z,21.93
2018-11-27T04:05:45.123Z,22.17
2018-11-27T04:08:14.071Z,23.07
2018-11-27T04:10:42.619Z,23.03
2018-11-27T04:13:11.071Z,23.27
2018-11-27T04:15:39.613Z,22.17
2018-11-27T04:18:08.106Z,22.27
2018-11-27T04:20:36.600Z,23.27
2018-11-27T04:23:05.183Z,23.93
2018-11-27T04:25:33.718Z,22.17
2018-11-27T04:28:02.150Z,22.47
2018-11-27T04:30:32.157Z,24.23
2018-11-27T04:33:00.959Z,24.53
2018-11-27T04:35:30.432Z,23.20
2018-11-27T04:37:59.689Z,22.77
2018-11-27T04:40:28.671Z,24.77
2018-11-27T04:42:57.721Z,23.57
2018-11-27T04:45:27.394Z,24.40
2018-11-27T04:47:56.672Z,27.03
2018-11-27T04:50:25.676Z,25.80
2018-11-27T04:52:54.570Z,24.47
2018-11-27T04:55:23.418Z,26.50
2018-11-27T05:01:26.013Z,24.80
2018-11-27T05:03:55.921Z,27.97
2018-11-27T05:06:25.770Z,27.47
2018-11-27T05:08:56.228Z,30.37
2018-11-27T05:11:27.467Z,28.40
2018-11-27T05:13:56.592Z,27.73
2018-11-27T05:16:27.255Z,29.93
2018-11-27T05:18:57.684Z,30.50
2018-11-27T05:21:27.781Z,30.27
2018-11-27T05:23:58.099Z,29.63
2018-11-27T05:26:27.610Z,30.20
2018-11-27T05:28:57.583Z,33.30
2018-11-27T05:31:28.015Z,29.77
2018-11-27T05:33:57.846Z,34.10
2018-11-27T05:36:27.882Z,34.53
2018-11-27T05:38:57.809Z,32.43
2018-11-27T05:41:27.818Z,33.10
2018-11-27T05:43:58.460Z,33.30
2018-11-27T05:46:29.080Z,32.93
2018-11-27T05:48:59.564Z,33.97
2018-11-27T05:51:30.386Z,32.53
2018-11-27T05:54:00.877Z,33.07
2018-11-27T05:56:31.447Z,31.87
2018-11-27T05:59:02.186Z,30.80
2018-11-27T06:01:30.799Z,30.37
2018-11-27T06:04:00.950Z,32.30
2018-11-27T06:06:31.898Z,31.63
2018-11-27T06:09:01.547Z,32.40
2018-11-27T06:11:30.921Z,30.27
2018-11-27T06:13:59.447Z,30.20
2018-11-27T06:16:28.906Z,32.33
2018-11-27T06:18:57.458Z,34.80
2018-11-27T06:21:28.612Z,30.40
2018-11-27T06:23:59.910Z,31.00
2018-11-27T06:26:30.608Z,33.13
2018-11-27T06:29:01.397Z,31.87
2018-11-27T06:31:31.550Z,33.37
2018-11-27T06:34:00.417Z,31.50
2018-11-27T06:36:37.803Z,30.13
2018-11-27T06:39:08.813Z,32.20
2018-11-27T06:41:37.394Z,32.50
2018-11-27T06:44:08.642Z,33.47
2018-11-27T06:46:37.398Z,32.63
2018-11-27T06:49:08.327Z,33.80
2018-11-27T06:51:36.800Z,31.90
2018-11-27T06:54:06.537Z,31.53
2018-11-27T06:56:35.188Z,32.40
2018-11-27T06:59:03.725Z,29.97
2018-11-27T07:01:32.330Z,32.37
2018-11-27T07:04:00.724Z,29.20
2018-11-27T07:06:30.559Z,30.57
2018-11-27T07:08:59.168Z,31.53
2018-11-27T07:11:27.599Z,30.87
2018-11-27T07:13:56.068Z,30.57
2018-11-27T07:16:24.524Z,30.47
2018-11-27T07:18:53.001Z,32.77
2018-11-27T07:21:21.384Z,30.77
2018-11-27T07:23:50.554Z,35.13
2018-11-27T07:26:19.024Z,32.97
2018-11-27T07:28:47.529Z,32.70
2018-11-27T07:31:16.185Z,32.63
2018-11-27T07:33:44.646Z,32.50
2018-11-27T07:36:13.148Z,34.17
2018-11-27T07:38:41.914Z,33.30
2018-11-27T07:41:10.703Z,31.70
2018-11-27T07:43:39.697Z,32.73
2018-11-27T07:46:08.948Z,33.70
2018-11-27T07:48:37.708Z,32.73
2018-11-27T07:51:07.849Z,30.27
2018-11-27T07:53:37.205Z,31.03
2018-11-27T07:56:06.628Z,28.47
2018-11-27T07:58:35.305Z,31.17
2018-11-27T08:01:04.222Z,32.53
2018-11-27T08:03:33.097Z,29.90
2018-11-27T08:06:02.043Z,28.07
2018-11-27T08:08:31.027Z,28.60
2018-11-27T08:10:59.967Z,27.63
2018-11-27T08:13:28.879Z,28.37
2018-11-27T08:15:58.319Z,26.93
2018-11-27T08:18:27.364Z,27.90
2018-11-27T08:20:56.268Z,28.57
2018-11-27T08:23:25.059Z,29.50
2018-11-27T08:25:53.866Z,28.47
2018-11-27T08:28:22.729Z,28.23
2018-11-27T08:30:51.833Z,26.87
2018-11-27T08:33:20.739Z,26.93
2018-11-27T08:35:50.279Z,27.70
2018-11-27T08:38:49.547Z,26.83
2018-11-27T08:41:18.403Z,27.10
2018-11-27T08:43:47.573Z,25.80
2018-11-27T08:46:16.704Z,26.27
2018-11-27T08:48:46.201Z,22.93
2018-11-27T08:51:14.974Z,26.47
2018-11-27T08:53:43.932Z,25.07
2018-11-27T08:56:12.845Z,25.27
2018-11-27T08:58:41.819Z,25.03
2018-11-27T09:01:11.226Z,25.50
2018-11-27T09:03:40.531Z,26.07
2018-11-27T09:06:09.487Z,25.53
2018-11-27T09:08:38.528Z,26.53
2018-11-27T09:11:07.739Z,24.87
2018-11-27T09:13:37.444Z,25.53
2018-11-27T09:16:07.120Z,26.27
2018-11-27T09:18:36.430Z,26.60
2018-11-27T09:21:05.232Z,25.67
2018-11-27T09:23:34.179Z,24.90
2018-11-27T09:26:02.933Z,24.40
2018-11-27T09:28:31.762Z,21.77
2018-11-27T09:31:00.846Z,23.77
2018-11-27T09:33:29.881Z,24.37
2018-11-27T09:35:58.677Z,24.07
2018-11-27T09:38:27.420Z,22.63
2018-11-27T09:40:56.000Z,24.20
2018-11-27T09:43:24.516Z,23.00
2018-11-27T09:45:53.066Z,23.27
2018-11-27T09:48:21.616Z,22.70
2018-11-27T09:50:50.064Z,23.33
2018-11-27T09:53:18.856Z,22.77
2018-11-27T09:55:47.676Z,21.13
2018-11-27T09:58:16.521Z,22.33
2018-11-27T10:00:45.314Z,22.87
2018-11-27T10:03:15.529Z,23.33
2018-11-27T10:05:44.395Z,23.40
2018-11-27T10:08:13.291Z,22.67
2018-11-27T10:10:42.204Z,21.93
2018-11-27T10:13:11.050Z,24.87
2018-11-27T10:15:39.800Z,23.10
2018-11-27T10:18:08.840Z,23.37
2018-11-27T10:20:39.912Z,21.30
2018-11-27T10:23:12.580Z,20.13
2018-11-27T10:25:41.337Z,20.67
2018-11-27T10:28:10.168Z,20.63
2018-11-27T10:30:39.345Z,20.60
2018-11-27T10:33:11.396Z,19.93
2018-11-27T10:35:45.405Z,19.73
2018-11-27T10:38:15.257Z,18.00
2018-11-27T10:40:43.944Z,16.90
2018-11-27T10:43:12.443Z,17.17
2018-11-27T10:45:40.928Z,18.77
2018-11-27T10:48:09.589Z,16.77
2018-11-27T10:50:38.522Z,18.13
2018-11-27T10:53:08.929Z,16.33
2018-11-27T10:55:37.871Z,19.33
2018-11-27T10:58:06.731Z,18.63
2018-11-27T11:00:40.404Z,19.30
2018-11-27T11:03:24.943Z,18.33
2018-11-27T11:05:55.286Z,17.97
2018-11-27T11:08:23.843Z,18.87
2018-11-27T11:10:52.505Z,18.13
2018-11-27T11:13:22.001Z,18.57
2018-11-27T11:15:50.943Z,18.47
2018-11-27T11:18:19.576Z,18.57
2018-11-27T11:20:48.274Z,20.37
2018-11-27T11:23:16.831Z,19.30
2018-11-27T11:25:45.317Z,18.63
2018-11-27T11:28:13.675Z,20.13
2018-11-27T11:30:42.095Z,19.37
2018-11-27T11:33:10.861Z,20.30
2018-11-27T11:35:39.358Z,20.30
2018-11-27T11:38:07.757Z,19.23
2018-11-27T11:40:36.792Z,20.37
2018-11-27T11:43:06.028Z,18.57
2018-11-27T11:45:34.431Z,22.00
2018-11-27T11:48:03.365Z,18.23
2018-11-27T11:50:33.215Z,20.70
2018-11-27T11:53:07.856Z,18.53
2018-11-27T11:55:36.780Z,18.27
2018-11-27T11:58:06.045Z,19.27
2018-11-27T12:00:38.190Z,19.63
2018-11-27T12:03:07.917Z,19.73
2018-11-27T12:05:38.249Z,21.57
2018-11-27T12:08:07.860Z,19.40
2018-11-27T12:10:37.473Z,20.17
2018-11-27T12:13:07.744Z,21.10
2018-11-27T12:15:37.610Z,20.00
2018-11-27T12:18:07.247Z,20.60
2018-11-27T12:20:36.038Z,21.57
2018-11-27T12:23:05.630Z,20.33
2018-11-27T12:25:34.386Z,19.27
2018-11-27T12:28:03.225Z,20.53
2018-11-27T12:30:32.137Z,19.53
2018-11-27T12:33:00.831Z,18.33
2018-11-27T12:35:29.729Z,20.17
2018-11-27T12:37:58.670Z,20.10
2018-11-27T12:40:28.691Z,20.33
2018-11-27T12:42:57.713Z,20.13
2018-11-27T12:45:29.037Z,20.20
2018-11-27T12:47:58.878Z,19.87
2018-11-27T12:50:38.694Z,19.33
2018-11-27T12:53:08.584Z,19.07
2018-11-27T12:55:39.810Z,18.87
2018-11-27T12:58:08.774Z,20.50
2018-11-27T13:00:37.533Z,20.50
2018-11-27T13:03:06.709Z,19.40
2018-11-27T13:05:38.963Z,20.87
2018-11-27T13:08:23.532Z,19.23
2018-11-27T13:10:52.268Z,21.07
2018-11-27T13:13:20.877Z,19.17
2018-11-27T13:15:49.528Z,19.50
2018-11-27T13:18:18.161Z,19.50
2018-11-27T13:20:46.769Z,20.37
2018-11-27T13:23:15.510Z,21.03
2018-11-27T13:25:44.114Z,19.57
2018-11-27T13:28:14.014Z,20.03
2018-11-27T13:30:46.987Z,20.83
2018-11-27T13:33:23.501Z,19.17
2018-11-27T13:35:52.689Z,21.10
2018-11-27T13:38:21.091Z,19.13
2018-11-27T13:40:49.876Z,18.87
2018-11-27T13:43:22.860Z,21.03
2018-11-27T13:45:51.688Z,20.70
2018-11-27T13:48:20.911Z,20.17
2018-11-27T13:50:49.600Z,19.27
2018-11-27T13:53:18.228Z,19.27
2018-11-27T13:55:46.741Z,19.13
2018-11-27T13:58:15.189Z,20.07
2018-11-27T14:00:43.617Z,20.10
2018-11-27T14:03:12.141Z,19.00
2018-11-27T14:05:40.627Z,20.37
2018-11-27T14:08:10.048Z,18.13
2018-11-27T14:10:39.232Z,18.50
2018-11-27T14:13:09.166Z,17.80
2018-11-27T14:15:38.289Z,17.53
2018-11-27T14:18:07.919Z,16.27
2018-11-27T14:20:36.973Z,15.30
2018-11-27T14:23:06.328Z,15.50
2018-11-27T14:25:34.997Z,16.77
2018-11-27T14:28:03.777Z,17.07
2018-11-27T14:30:32.539Z,16.80
2018-11-27T14:33:01.273Z,16.03
2018-11-27T14:35:30.349Z,15.20
2018-11-27T14:37:59.020Z,15.07
2018-11-27T14:40:29.095Z,16.37
2018-11-27T14:42:57.533Z,16.83
2018-11-27T14:45:27.111Z,16.57
2018-11-27T14:47:56.693Z,16.70
2018-11-27T14:50:25.152Z,15.23
2018-11-27T14:52:53.701Z,17.13
2018-11-27T14:55:28.323Z,17.23
2018-11-27T14:57:57.220Z,16.60
2018-11-27T15:00:27.777Z,16.63
2018-11-27T15:02:57.324Z,14.97
2018-11-27T15:05:32.216Z,16.03
2018-11-27T15:08:01.067Z,15.07
2018-11-27T15:10:30.157Z,14.97
2018-11-27T15:12:58.578Z,16.50
2018-11-27T15:15:27.210Z,15.73
2018-11-27T15:17:57.277Z,15.40
2018-11-27T15:20:25.843Z,15.07
2018-11-27T15:22:54.355Z,14.13
2018-11-27T15:25:22.842Z,15.60
2018-11-27T15:27:51.778Z,15.63
2018-11-27T15:30:23.229Z,16.00
2018-11-27T15:32:52.896Z,15.33
2018-11-27T15:35:21.357Z,16.13
2018-11-27T15:37:51.723Z,14.97
2018-11-27T15:40:24.413Z,14.77
2018-11-27T15:42:53.263Z,15.43
2018-11-27T15:45:26.838Z,14.87
2018-11-27T15:47:55.511Z,15.30
2018-11-27T15:50:26.543Z,14.13
2018-11-27T15:53:25.581Z,14.70
2018-11-27T15:55:54.132Z,14.40
2018-11-27T15:58:24.151Z,15.67
2018-11-27T16:00:53.825Z,14.60
2018-11-27T16:03:24.313Z,14.00
2018-11-27T16:05:54.562Z,13.27
2018-11-27T16:08:24.677Z,13.67
2018-11-27T16:10:53.499Z,15.07
2018-11-27T16:13:24.405Z,14.00
2018-11-27T16:15:54.632Z,13.77
2018-11-27T16:18:25.415Z,13.60
2018-11-27T16:20:54.959Z,14.07
2018-11-27T16:23:25.904Z,14.50
2018-11-27T16:25:55.422Z,14.93
2018-11-27T16:28:26.694Z,15.40
2018-11-27T16:30:57.236Z,13.43
2018-11-27T16:33:26.380Z,14.73
2018-11-27T16:35:58.137Z,14.37
2018-11-27T16:38:31.384Z,13.13
2018-11-27T16:41:00.336Z,14.43
2018-11-27T16:43:29.111Z,15.67
2018-11-27T16:45:57.612Z,14.90
2018-11-27T16:48:26.518Z,14.87
2018-11-27T16:50:56.707Z,14.40
2018-11-27T16:53:25.608Z,14.47
2018-11-27T16:55:54.077Z,15.17
2018-11-27T16:58:22.526Z,14.43
2018-11-27T17:00:51.019Z,14.37
2018-11-27T17:03:19.515Z,15.80
2018-11-27T17:05:47.937Z,14.07
2018-11-27T17:08:16.534Z,14.23
2018-11-27T17:10:46.421Z,14.90
2018-11-27T17:13:15.918Z,14.60
2018-11-27T17:15:44.440Z,14.17
2018-11-27T17:18:13.877Z,17.00
2018-11-27T17:20:43.915Z,15.60
2018-11-27T17:23:13.884Z,14.70
2018-11-27T17:25:42.291Z,23.37
2018-11-27T17:28:15.297Z,16.90
2018-11-27T17:30:48.634Z,17.00
2018-11-27T17:33:21.533Z,15.60
2018-11-27T17:35:51.186Z,17.77
2018-11-27T17:38:20.575Z,19.67
2018-11-27T17:40:50.171Z,17.60
2018-11-27T17:43:18.565Z,16.97
2018-11-27T17:45:47.119Z,17.33
2018-11-27T17:48:15.653Z,18.27
2018-11-27T17:50:44.148Z,18.33
2018-11-27T17:53:12.658Z,17.23
2018-11-27T17:55:41.791Z,17.80
2018-11-27T17:58:10.765Z,17.97
2018-11-27T18:00:39.361Z,17.53
2018-11-27T18:03:09.100Z,17.33
2018-11-27T18:05:37.569Z,18.50
2018-11-27T18:08:07.331Z,17.53
2018-11-27T18:10:36.485Z,17.70
2018-11-27T18:13:07.595Z,19.40
2018-11-27T18:15:38.577Z,18.23
2018-11-27T18:18:09.367Z,18.50
2018-11-27T18:20:39.608Z,18.03
2018-11-27T18:23:09.373Z,17.53
2018-11-27T18:25:38.348Z,17.80
2018-11-27T18:28:07.973Z,18.47
2018-11-27T18:30:38.157Z,18.13
2018-11-27T18:33:08.033Z,17.97
2018-11-27T18:35:38.361Z,18.83
2018-11-27T18:38:08.199Z,18.87
2018-11-27T18:40:38.425Z,19.00
2018-11-27T18:43:07.643Z,18.00
2018-11-27T18:45:37.193Z,18.07
2018-11-27T18:48:06.610Z,19.10
2018-11-27T18:50:36.246Z,17.77
2018-11-27T18:53:05.101Z,18.67
2018-11-27T18:55:33.962Z,18.57
2018-11-27T18:58:04.542Z,20.20
2018-11-27T19:00:33.783Z,18.63
2018-11-27T19:03:02.257Z,19.77
2018-11-27T19:05:31.702Z,18.33
2018-11-27T19:08:00.175Z,18.90
2018-11-27T19:10:31.951Z,19.03
2018-11-27T19:13:00.834Z,18.50
2018-11-27T19:15:32.988Z,18.87
2018-11-27T19:18:03.536Z,18.13
2018-11-27T19:20:33.087Z,18.17
2018-11-27T19:23:02.517Z,17.03
2018-11-27T19:25:31.381Z,17.37
2018-11-27T19:28:02.265Z,17.10
2018-11-27T19:30:32.263Z,19.33
2018-11-27T19:32:59.050Z,18.93
2018-11-27T19:35:27.681Z,18.37
2018-11-27T19:37:57.001Z,17.43
2018-11-27T19:40:26.996Z,17.83
2018-11-27T19:42:57.141Z,18.10
2018-11-27T19:45:27.282Z,17.07
2018-11-27T19:47:56.257Z,18.80
2018-11-27T19:50:24.796Z,18.53
2018-11-27T19:52:56.101Z,18.10
2018-11-27T19:55:24.544Z,19.37
2018-11-27T19:57:55.196Z,18.90
2018-11-27T20:00:26.880Z,17.77
2018-11-27T20:02:55.734Z,19.27
2018-11-27T20:05:26.442Z,19.53
2018-11-27T20:07:54.905Z,19.70
2018-11-27T20:10:27.114Z,19.10
2018-11-27T20:12:55.586Z,18.03
2018-11-27T20:15:26.082Z,17.93
2018-11-27T20:17:56.004Z,18.47
2018-11-27T20:20:25.528Z,19.17
2018-11-27T20:22:54.751Z,18.40
2018-11-27T20:28:24.697Z,18.03
2018-11-27T20:30:54.263Z,18.57
2018-11-27T20:33:24.703Z,19.80
2018-11-27T20:35:56.047Z,17.90
2018-11-27T20:38:26.277Z,19.10
2018-11-27T20:40:56.461Z,17.87
2018-11-27T20:43:27.415Z,18.70
2018-11-27T20:45:56.444Z,19.87
2018-11-27T20:48:25.527Z,19.87
2018-11-27T20:50:55.821Z,20.30
2018-11-27T20:53:24.319Z,20.13
2018-11-27T20:55:54.241Z,19.87
2018-11-27T20:58:23.850Z,19.97
2018-11-27T21:00:55.108Z,20.90
2018-11-27T21:03:26.039Z,21.60
2018-11-27T21:05:54.987Z,20.47
2018-11-27T21:11:08.383Z,20.73
2018-11-27T21:13:35.082Z,19.90
2018-11-27T21:16:03.674Z,19.03
2018-11-27T21:18:34.101Z,20.00
2018-11-27T21:21:04.762Z,20.87
2018-11-27T21:23:33.407Z,21.57
2018-11-27T21:26:06.246Z,21.90
2018-11-27T21:28:35.789Z,20.80
2018-11-27T21:31:06.779Z,23.00
2018-11-27T21:33:36.715Z,22.33
2018-11-27T21:36:05.804Z,22.87
2018-11-27T21:38:34.413Z,21.90
2018-11-27T21:41:03.403Z,21.47
2018-11-27T21:43:33.309Z,22.57
2018-11-27T21:46:02.889Z,23.83
2018-11-27T21:48:33.105Z,23.20
2018-11-27T21:51:03.158Z,21.90
2018-11-27T21:53:32.821Z,22.73
2018-11-27T21:56:02.211Z,23.17
2018-11-27T21:58:34.420Z,23.93
2018-11-27T22:01:03.069Z,23.60
2018-11-27T22:03:32.889Z,22.67
2018-11-27T22:06:02.286Z,23.03
2018-11-27T22:08:30.869Z,24.93
2018-11-27T22:11:02.756Z,24.87
2018-11-27T22:13:33.713Z,23.70
2018-11-27T22:16:02.334Z,24.73
2018-11-27T22:18:30.991Z,23.40
2018-11-27T22:20:59.490Z,24.77
2018-11-27T22:23:30.031Z,24.63
2018-11-27T22:26:11.340Z,24.03
2018-11-27T22:29:12.016Z,25.33
2018-11-27T22:31:41.189Z,25.43
2018-11-27T22:34:09.987Z,24.83
2018-11-27T22:36:38.601Z,26.20
2018-11-27T22:39:08.965Z,25.33
2018-11-27T22:41:40.295Z,25.43
2018-11-27T22:44:09.114Z,25.53
2018-11-27T22:46:40.337Z,25.47
2018-11-27T22:49:11.333Z,25.60
2018-11-27T22:51:42.334Z,26.17
2018-11-27T22:54:12.403Z,25.57
2018-11-27T22:56:42.576Z,27.37
2018-11-27T22:59:13.300Z,27.20
2018-11-27T23:01:43.132Z,27.30
2018-11-27T23:04:11.846Z,24.40
2018-11-27T23:06:42.037Z,27.30
2018-11-27T23:09:11.440Z,26.50
2018-11-27T23:11:41.452Z,26.47
2018-11-27T23:14:10.857Z,28.60
2018-11-27T23:16:41.590Z,27.00
2018-11-27T23:19:11.811Z,26.40
2018-11-27T23:21:42.277Z,28.17
2018-11-27T23:24:13.588Z,27.80
2018-11-27T23:26:43.489Z,28.30
2018-11-27T23:29:13.043Z,26.40
2018-11-27T23:31:42.477Z,27.80
2018-11-27T23:34:12.377Z,27.27
2018-11-27T23:36:41.668Z,28.77
2018-11-27T23:39:11.232Z,27.97
2018-11-27T23:41:40.837Z,28.77
2018-11-27T23:44:10.203Z,28.40
2018-11-27T23:46:41.556Z,28.33
2018-11-27T23:49:11.812Z,26.53
2018-11-27T23:51:42.952Z,28.17
2018-11-27T23:54:13.586Z,28.03
2018-11-27T23:56:48.599Z,27.83
2018-11-27T23:59:14.522Z,27.57
